sensor_id;sensor_type;location;lat;lon;timestamp;P1;durP1;ratioP1;P2;durP2;ratioP2
10529;SDS011;5313;48.834;9.228;2023-07-09T00:01:50;7.17;;;4.10;;
10529;SDS011;5313;48.834;9.228;2023-07-09T00:04:16;8.30;;;3.73;;
10529;SDS011;5313;48.834;9.228;2023-07-09T00:06:42;8.60;;;3.90;;
10529;SDS011;5313;48.834;9.228;2023-07-09T00:09:18;7.77;;;4.03;;
10529;SDS011;5313;48.834;9.228;2023-07-09T00:11:46;7.00;;;3.90;;
10529;SDS011;5313;48.834;9.228;2023-07-09T00:14:13;11.27;;;4.57;;
10529;SDS011;5313;48.834;9.228;2023-07-09T00:16:40;6.67;;;4.30;;
10529;SDS011;5313;48.834;9.228;2023-07-09T00:19:13;7.40;;;4.20;;
10529;SDS011;5313;48.834;9.228;2023-07-09T00:21:41;8.53;;;4.27;;
10529;SDS011;5313;48.834;9.228;2023-07-09T00:24:10;7.33;;;4.00;;
10529;SDS011;5313;48.834;9.228;2023-07-09T00:26:36;6.50;;;4.13;;
10529;SDS011;5313;48.834;9.228;2023-07-09T00:29:03;6.93;;;3.87;;
10529;SDS011;5313;48.834;9.228;2023-07-09T00:31:29;5.83;;;4.13;;
10529;SDS011;5313;48.834;9.228;2023-07-09T00:33:54;7.33;;;4.00;;
10529;SDS011;5313;48.834;9.228;2023-07-09T00:36:29;8.67;;;4.23;;
10529;SDS011;5313;48.834;9.228;2023-07-09T00:38:56;7.87;;;4.00;;
10529;SDS011;5313;48.834;9.228;2023-07-09T00:41:24;7.20;;;4.60;;
10529;SDS011;5313;48.834;9.228;2023-07-09T00:43:51;6.60;;;3.83;;
10529;SDS011;5313;48.834;9.228;2023-07-09T00:48:48;6.73;;;3.97;;
10529;SDS011;5313;48.834;9.228;2023-07-09T00:51:30;6.60;;;4.20;;
10529;SDS011;5313;48.834;9.228;2023-07-09T00:54:00;6.70;;;3.97;;
10529;SDS011;5313;48.834;9.228;2023-07-09T00:56:35;14.10;;;4.23;;
10529;SDS011;5313;48.834;9.228;2023-07-09T00:59:05;6.00;;;4.23;;
10529;SDS011;5313;48.834;9.228;2023-07-09T01:01:33;6.13;;;4.20;;
10529;SDS011;5313;48.834;9.228;2023-07-09T01:03:59;4.90;;;3.57;;
10529;SDS011;5313;48.834;9.228;2023-07-09T01:06:28;8.10;;;3.93;;
10529;SDS011;5313;48.834;9.228;2023-07-09T01:08:58;6.13;;;4.10;;
10529;SDS011;5313;48.834;9.228;2023-07-09T01:11:26;6.77;;;3.90;;
10529;SDS011;5313;48.834;9.228;2023-07-09T01:13:52;6.37;;;3.93;;
10529;SDS011;5313;48.834;9.228;2023-07-09T01:16:21;5.87;;;3.90;;
10529;SDS011;5313;48.834;9.228;2023-07-09T01:18:52;6.43;;;3.63;;
10529;SDS011;5313;48.834;9.228;2023-07-09T01:21:18;6.43;;;4.10;;
10529;SDS011;5313;48.834;9.228;2023-07-09T01:23:44;5.73;;;3.93;;
10529;SDS011;5313;48.834;9.228;2023-07-09T01:26:21;5.93;;;4.00;;
10529;SDS011;5313;48.834;9.228;2023-07-09T01:28:52;7.43;;;4.10;;
10529;SDS011;5313;48.834;9.228;2023-07-09T01:31:19;6.17;;;3.53;;
10529;SDS011;5313;48.834;9.228;2023-07-09T01:33:49;5.47;;;3.97;;
10529;SDS011;5313;48.834;9.228;2023-07-09T01:36:20;7.63;;;3.77;;
10529;SDS011;5313;48.834;9.228;2023-07-09T01:38:48;5.43;;;3.57;;
10529;SDS011;5313;48.834;9.228;2023-07-09T01:41:15;7.03;;;3.70;;
10529;SDS011;5313;48.834;9.228;2023-07-09T01:43:42;5.67;;;3.63;;
10529;SDS011;5313;48.834;9.228;2023-07-09T01:46:09;6.20;;;4.00;;
10529;SDS011;5313;48.834;9.228;2023-07-09T01:48:37;6.40;;;3.63;;
10529;SDS011;5313;48.834;9.228;2023-07-09T01:51:06;7.03;;;3.60;;
10529;SDS011;5313;48.834;9.228;2023-07-09T01:53:36;5.00;;;3.50;;
10529;SDS011;5313;48.834;9.228;2023-07-09T01:56:05;4.63;;;3.67;;
10529;SDS011;5313;48.834;9.228;2023-07-09T01:58:32;5.10;;;3.77;;
10529;SDS011;5313;48.834;9.228;2023-07-09T02:00:59;6.00;;;3.77;;
10529;SDS011;5313;48.834;9.228;2023-07-09T02:03:25;5.83;;;3.93;;
10529;SDS011;5313;48.834;9.228;2023-07-09T02:05:53;5.47;;;3.60;;
10529;SDS011;5313;48.834;9.228;2023-07-09T02:08:20;5.50;;;3.80;;
10529;SDS011;5313;48.834;9.228;2023-07-09T02:10:49;4.97;;;3.70;;
10529;SDS011;5313;48.834;9.228;2023-07-09T02:13:15;5.17;;;3.80;;
10529;SDS011;5313;48.834;9.228;2023-07-09T02:15:42;5.87;;;3.43;;
10529;SDS011;5313;48.834;9.228;2023-07-09T02:18:09;4.90;;;3.47;;
10529;SDS011;5313;48.834;9.228;2023-07-09T02:20:35;5.77;;;3.97;;
10529;SDS011;5313;48.834;9.228;2023-07-09T02:23:01;7.03;;;3.83;;
10529;SDS011;5313;48.834;9.228;2023-07-09T02:25:28;4.03;;;3.43;;
10529;SDS011;5313;48.834;9.228;2023-07-09T02:27:53;4.73;;;3.50;;
10529;SDS011;5313;48.834;9.228;2023-07-09T02:30:19;5.03;;;3.70;;
10529;SDS011;5313;48.834;9.228;2023-07-09T02:32:44;4.83;;;3.50;;
10529;SDS011;5313;48.834;9.228;2023-07-09T02:35:10;7.00;;;3.70;;
10529;SDS011;5313;48.834;9.228;2023-07-09T02:37:35;7.50;;;3.83;;
10529;SDS011;5313;48.834;9.228;2023-07-09T02:40:01;5.90;;;3.87;;
10529;SDS011;5313;48.834;9.228;2023-07-09T02:42:28;4.50;;;3.53;;
10529;SDS011;5313;48.834;9.228;2023-07-09T02:44:54;7.27;;;3.93;;
10529;SDS011;5313;48.834;9.228;2023-07-09T02:47:19;5.43;;;3.70;;
10529;SDS011;5313;48.834;9.228;2023-07-09T02:49:45;6.33;;;3.60;;
10529;SDS011;5313;48.834;9.228;2023-07-09T02:52:11;6.60;;;3.60;;
10529;SDS011;5313;48.834;9.228;2023-07-09T02:54:36;6.10;;;3.30;;
10529;SDS011;5313;48.834;9.228;2023-07-09T02:57:02;5.23;;;3.40;;
10529;SDS011;5313;48.834;9.228;2023-07-09T02:59:28;5.00;;;3.80;;
10529;SDS011;5313;48.834;9.228;2023-07-09T03:01:54;4.43;;;3.47;;
10529;SDS011;5313;48.834;9.228;2023-07-09T03:04:20;6.13;;;3.23;;
10529;SDS011;5313;48.834;9.228;2023-07-09T03:06:45;4.93;;;3.37;;
10529;SDS011;5313;48.834;9.228;2023-07-09T03:09:11;5.47;;;3.40;;
10529;SDS011;5313;48.834;9.228;2023-07-09T03:11:36;5.60;;;3.60;;
10529;SDS011;5313;48.834;9.228;2023-07-09T03:14:03;5.30;;;3.43;;
10529;SDS011;5313;48.834;9.228;2023-07-09T03:16:29;4.37;;;3.40;;
10529;SDS011;5313;48.834;9.228;2023-07-09T03:18:57;5.13;;;3.13;;
10529;SDS011;5313;48.834;9.228;2023-07-09T03:21:23;4.80;;;3.57;;
10529;SDS011;5313;48.834;9.228;2023-07-09T03:23:50;6.03;;;3.50;;
10529;SDS011;5313;48.834;9.228;2023-07-09T03:26:16;5.60;;;3.37;;
10529;SDS011;5313;48.834;9.228;2023-07-09T03:28:42;5.27;;;3.67;;
10529;SDS011;5313;48.834;9.228;2023-07-09T03:31:07;5.40;;;3.67;;
10529;SDS011;5313;48.834;9.228;2023-07-09T03:33:33;7.03;;;4.10;;
10529;SDS011;5313;48.834;9.228;2023-07-09T03:35:59;4.10;;;3.40;;
10529;SDS011;5313;48.834;9.228;2023-07-09T03:38:24;6.23;;;3.60;;
10529;SDS011;5313;48.834;9.228;2023-07-09T03:40:53;6.57;;;3.47;;
10529;SDS011;5313;48.834;9.228;2023-07-09T03:43:19;5.23;;;3.50;;
10529;SDS011;5313;48.834;9.228;2023-07-09T03:45:45;5.97;;;3.33;;
10529;SDS011;5313;48.834;9.228;2023-07-09T03:48:11;4.93;;;3.30;;
10529;SDS011;5313;48.834;9.228;2023-07-09T03:50:37;4.40;;;3.40;;
10529;SDS011;5313;48.834;9.228;2023-07-09T03:53:03;6.00;;;3.80;;
10529;SDS011;5313;48.834;9.228;2023-07-09T03:55:30;5.63;;;3.87;;
10529;SDS011;5313;48.834;9.228;2023-07-09T03:57:56;5.17;;;3.17;;
10529;SDS011;5313;48.834;9.228;2023-07-09T04:00:22;5.63;;;3.23;;
10529;SDS011;5313;48.834;9.228;2023-07-09T04:02:48;5.43;;;3.43;;
10529;SDS011;5313;48.834;9.228;2023-07-09T04:05:13;5.63;;;3.23;;
10529;SDS011;5313;48.834;9.228;2023-07-09T04:07:39;7.10;;;3.43;;
10529;SDS011;5313;48.834;9.228;2023-07-09T04:10:05;5.30;;;3.27;;
10529;SDS011;5313;48.834;9.228;2023-07-09T04:12:31;4.30;;;3.50;;
10529;SDS011;5313;48.834;9.228;2023-07-09T04:14:57;5.10;;;3.40;;
10529;SDS011;5313;48.834;9.228;2023-07-09T04:17:22;6.23;;;3.03;;
10529;SDS011;5313;48.834;9.228;2023-07-09T04:19:49;4.80;;;3.60;;
10529;SDS011;5313;48.834;9.228;2023-07-09T04:22:15;6.27;;;3.57;;
10529;SDS011;5313;48.834;9.228;2023-07-09T04:24:41;6.00;;;3.50;;
10529;SDS011;5313;48.834;9.228;2023-07-09T04:27:07;4.23;;;3.07;;
10529;SDS011;5313;48.834;9.228;2023-07-09T04:29:33;7.77;;;3.43;;
10529;SDS011;5313;48.834;9.228;2023-07-09T04:32:00;6.57;;;3.63;;
10529;SDS011;5313;48.834;9.228;2023-07-09T04:34:26;5.87;;;3.20;;
10529;SDS011;5313;48.834;9.228;2023-07-09T04:36:51;5.03;;;3.17;;
10529;SDS011;5313;48.834;9.228;2023-07-09T04:39:17;4.73;;;3.57;;
10529;SDS011;5313;48.834;9.228;2023-07-09T04:41:42;8.80;;;3.57;;
10529;SDS011;5313;48.834;9.228;2023-07-09T04:44:08;6.07;;;3.80;;
10529;SDS011;5313;48.834;9.228;2023-07-09T04:46:33;5.83;;;3.17;;
10529;SDS011;5313;48.834;9.228;2023-07-09T04:48:59;4.20;;;3.40;;
10529;SDS011;5313;48.834;9.228;2023-07-09T04:51:25;4.87;;;3.67;;
10529;SDS011;5313;48.834;9.228;2023-07-09T04:53:51;5.53;;;3.67;;
10529;SDS011;5313;48.834;9.228;2023-07-09T04:56:17;4.83;;;3.40;;
10529;SDS011;5313;48.834;9.228;2023-07-09T04:58:43;4.73;;;3.40;;
10529;SDS011;5313;48.834;9.228;2023-07-09T05:01:08;7.13;;;3.63;;
10529;SDS011;5313;48.834;9.228;2023-07-09T05:03:34;5.37;;;3.13;;
10529;SDS011;5313;48.834;9.228;2023-07-09T05:05:59;7.60;;;3.77;;
10529;SDS011;5313;48.834;9.228;2023-07-09T05:08:25;5.07;;;3.20;;
10529;SDS011;5313;48.834;9.228;2023-07-09T05:10:51;5.07;;;3.80;;
10529;SDS011;5313;48.834;9.228;2023-07-09T05:13:18;5.27;;;3.10;;
10529;SDS011;5313;48.834;9.228;2023-07-09T05:15:45;4.93;;;3.30;;
10529;SDS011;5313;48.834;9.228;2023-07-09T05:18:12;6.27;;;3.90;;
10529;SDS011;5313;48.834;9.228;2023-07-09T05:20:39;4.67;;;3.27;;
10529;SDS011;5313;48.834;9.228;2023-07-09T05:23:06;5.07;;;3.40;;
10529;SDS011;5313;48.834;9.228;2023-07-09T05:25:32;5.13;;;3.57;;
10529;SDS011;5313;48.834;9.228;2023-07-09T05:27:58;4.80;;;3.20;;
10529;SDS011;5313;48.834;9.228;2023-07-09T05:30:23;6.73;;;3.67;;
10529;SDS011;5313;48.834;9.228;2023-07-09T05:32:49;5.50;;;3.60;;
10529;SDS011;5313;48.834;9.228;2023-07-09T05:35:14;5.57;;;3.53;;
10529;SDS011;5313;48.834;9.228;2023-07-09T05:37:40;9.03;;;3.93;;
10529;SDS011;5313;48.834;9.228;2023-07-09T05:40:06;6.40;;;4.13;;
10529;SDS011;5313;48.834;9.228;2023-07-09T05:42:33;7.03;;;4.03;;
10529;SDS011;5313;48.834;9.228;2023-07-09T05:44:58;11.97;;;4.10;;
10529;SDS011;5313;48.834;9.228;2023-07-09T05:47:24;4.83;;;3.67;;
10529;SDS011;5313;48.834;9.228;2023-07-09T05:49:50;7.37;;;3.77;;
10529;SDS011;5313;48.834;9.228;2023-07-09T05:52:17;7.03;;;3.87;;
10529;SDS011;5313;48.834;9.228;2023-07-09T05:54:43;5.97;;;3.83;;
10529;SDS011;5313;48.834;9.228;2023-07-09T05:57:09;7.87;;;3.73;;
10529;SDS011;5313;48.834;9.228;2023-07-09T05:59:35;4.40;;;3.80;;
10529;SDS011;5313;48.834;9.228;2023-07-09T06:02:01;8.20;;;4.10;;
10529;SDS011;5313;48.834;9.228;2023-07-09T06:04:27;5.17;;;3.70;;
10529;SDS011;5313;48.834;9.228;2023-07-09T06:06:53;7.47;;;3.90;;
10529;SDS011;5313;48.834;9.228;2023-07-09T06:09:19;6.57;;;4.20;;
10529;SDS011;5313;48.834;9.228;2023-07-09T06:11:44;6.87;;;4.10;;
10529;SDS011;5313;48.834;9.228;2023-07-09T06:14:10;5.93;;;3.90;;
10529;SDS011;5313;48.834;9.228;2023-07-09T06:16:35;6.20;;;4.20;;
10529;SDS011;5313;48.834;9.228;2023-07-09T06:19:02;6.47;;;3.83;;
10529;SDS011;5313;48.834;9.228;2023-07-09T06:21:28;5.40;;;3.97;;
10529;SDS011;5313;48.834;9.228;2023-07-09T06:23:54;7.63;;;4.20;;
10529;SDS011;5313;48.834;9.228;2023-07-09T06:26:19;6.60;;;3.90;;
10529;SDS011;5313;48.834;9.228;2023-07-09T06:28:45;6.97;;;4.30;;
10529;SDS011;5313;48.834;9.228;2023-07-09T06:31:11;5.83;;;3.80;;
10529;SDS011;5313;48.834;9.228;2023-07-09T06:33:36;5.63;;;3.80;;
10529;SDS011;5313;48.834;9.228;2023-07-09T06:36:02;6.60;;;4.40;;
10529;SDS011;5313;48.834;9.228;2023-07-09T06:38:28;6.30;;;4.27;;
10529;SDS011;5313;48.834;9.228;2023-07-09T06:40:54;5.97;;;4.03;;
10529;SDS011;5313;48.834;9.228;2023-07-09T06:43:20;8.00;;;4.00;;
10529;SDS011;5313;48.834;9.228;2023-07-09T06:45:50;5.07;;;3.90;;
10529;SDS011;5313;48.834;9.228;2023-07-09T06:48:23;8.57;;;4.13;;
10529;SDS011;5313;48.834;9.228;2023-07-09T06:50:50;6.40;;;4.27;;
10529;SDS011;5313;48.834;9.228;2023-07-09T06:53:16;5.83;;;3.90;;
10529;SDS011;5313;48.834;9.228;2023-07-09T06:55:42;6.97;;;4.13;;
10529;SDS011;5313;48.834;9.228;2023-07-09T06:58:08;6.43;;;4.13;;
10529;SDS011;5313;48.834;9.228;2023-07-09T07:00:34;6.17;;;4.10;;
10529;SDS011;5313;48.834;9.228;2023-07-09T07:03:03;5.10;;;3.90;;
10529;SDS011;5313;48.834;9.228;2023-07-09T07:05:29;5.53;;;3.77;;
10529;SDS011;5313;48.834;9.228;2023-07-09T07:07:54;5.70;;;4.07;;
10529;SDS011;5313;48.834;9.228;2023-07-09T07:10:20;8.13;;;4.53;;
10529;SDS011;5313;48.834;9.228;2023-07-09T07:12:46;5.53;;;4.10;;
10529;SDS011;5313;48.834;9.228;2023-07-09T07:15:14;5.83;;;4.13;;
10529;SDS011;5313;48.834;9.228;2023-07-09T07:17:41;8.70;;;4.57;;
10529;SDS011;5313;48.834;9.228;2023-07-09T07:20:08;8.30;;;4.27;;
10529;SDS011;5313;48.834;9.228;2023-07-09T07:22:35;6.60;;;3.90;;
10529;SDS011;5313;48.834;9.228;2023-07-09T07:25:02;7.33;;;4.57;;
10529;SDS011;5313;48.834;9.228;2023-07-09T07:27:28;6.90;;;3.80;;
10529;SDS011;5313;48.834;9.228;2023-07-09T07:29:54;6.20;;;4.10;;
10529;SDS011;5313;48.834;9.228;2023-07-09T07:32:19;4.93;;;3.80;;
10529;SDS011;5313;48.834;9.228;2023-07-09T07:34:46;5.55;;;4.13;;
10529;SDS011;5313;48.834;9.228;2023-07-09T07:37:12;5.65;;;4.00;;
10529;SDS011;5313;48.834;9.228;2023-07-09T07:39:38;10.35;;;4.18;;
10529;SDS011;5313;48.834;9.228;2023-07-09T07:42:03;6.63;;;4.13;;
10529;SDS011;5313;48.834;9.228;2023-07-09T07:44:29;9.38;;;4.07;;
10529;SDS011;5313;48.834;9.228;2023-07-09T07:46:55;5.55;;;4.03;;
10529;SDS011;5313;48.834;9.228;2023-07-09T07:49:20;7.23;;;4.53;;
10529;SDS011;5313;48.834;9.228;2023-07-09T07:51:46;7.72;;;3.80;;
10529;SDS011;5313;48.834;9.228;2023-07-09T07:54:12;6.57;;;3.83;;
10529;SDS011;5313;48.834;9.228;2023-07-09T07:56:37;7.18;;;4.30;;
10529;SDS011;5313;48.834;9.228;2023-07-09T07:59:03;4.40;;;3.67;;
10529;SDS011;5313;48.834;9.228;2023-07-09T08:01:28;7.65;;;4.40;;
10529;SDS011;5313;48.834;9.228;2023-07-09T08:03:54;5.90;;;3.85;;
10529;SDS011;5313;48.834;9.228;2023-07-09T08:06:20;6.13;;;4.25;;
10529;SDS011;5313;48.834;9.228;2023-07-09T08:08:46;6.70;;;3.88;;
10529;SDS011;5313;48.834;9.228;2023-07-09T08:11:15;6.70;;;3.75;;
10529;SDS011;5313;48.834;9.228;2023-07-09T08:13:41;6.03;;;3.92;;
10529;SDS011;5313;48.834;9.228;2023-07-09T08:16:07;5.97;;;3.83;;
10529;SDS011;5313;48.834;9.228;2023-07-09T08:18:33;7.18;;;3.63;;
10529;SDS011;5313;48.834;9.228;2023-07-09T08:20:59;6.60;;;3.83;;
10529;SDS011;5313;48.834;9.228;2023-07-09T08:23:25;5.45;;;4.18;;
10529;SDS011;5313;48.834;9.228;2023-07-09T08:25:57;5.65;;;4.20;;
10529;SDS011;5313;48.834;9.228;2023-07-09T08:28:24;7.85;;;4.18;;
10529;SDS011;5313;48.834;9.228;2023-07-09T08:30:53;6.18;;;3.72;;
10529;SDS011;5313;48.834;9.228;2023-07-09T08:33:20;5.85;;;4.32;;
10529;SDS011;5313;48.834;9.228;2023-07-09T08:35:45;7.47;;;3.75;;
10529;SDS011;5313;48.834;9.228;2023-07-09T08:38:13;6.10;;;3.80;;
10529;SDS011;5313;48.834;9.228;2023-07-09T08:40:39;6.20;;;3.88;;
10529;SDS011;5313;48.834;9.228;2023-07-09T08:43:25;6.70;;;3.63;;
10529;SDS011;5313;48.834;9.228;2023-07-09T08:46:17;5.65;;;4.05;;
10529;SDS011;5313;48.834;9.228;2023-07-09T08:49:18;4.88;;;3.60;;
10529;SDS011;5313;48.834;9.228;2023-07-09T08:51:46;4.68;;;3.50;;
10529;SDS011;5313;48.834;9.228;2023-07-09T08:54:15;5.80;;;3.70;;
10529;SDS011;5313;48.834;9.228;2023-07-09T08:56:50;4.13;;;3.25;;
10529;SDS011;5313;48.834;9.228;2023-07-09T08:59:16;6.82;;;3.58;;
10529;SDS011;5313;48.834;9.228;2023-07-09T09:01:49;5.72;;;3.63;;
10529;SDS011;5313;48.834;9.228;2023-07-09T09:04:20;6.45;;;3.63;;
10529;SDS011;5313;48.834;9.228;2023-07-09T09:09:40;5.22;;;3.42;;
10529;SDS011;5313;48.834;9.228;2023-07-09T09:12:19;5.22;;;3.67;;
10529;SDS011;5313;48.834;9.228;2023-07-09T09:14:56;5.95;;;3.45;;
10529;SDS011;5313;48.834;9.228;2023-07-09T09:17:25;6.25;;;3.55;;
10529;SDS011;5313;48.834;9.228;2023-07-09T09:19:57;6.97;;;3.63;;
10529;SDS011;5313;48.834;9.228;2023-07-09T09:22:48;5.97;;;3.55;;
10529;SDS011;5313;48.834;9.228;2023-07-09T09:27:40;5.80;;;3.60;;
10529;SDS011;5313;48.834;9.228;2023-07-09T09:30:11;4.65;;;3.30;;
10529;SDS011;5313;48.834;9.228;2023-07-09T09:32:44;4.15;;;3.40;;
10529;SDS011;5313;48.834;9.228;2023-07-09T09:35:13;4.95;;;3.05;;
10529;SDS011;5313;48.834;9.228;2023-07-09T09:37:44;5.15;;;3.08;;
10529;SDS011;5313;48.834;9.228;2023-07-09T09:40:14;5.95;;;3.17;;
10529;SDS011;5313;48.834;9.228;2023-07-09T09:42:43;5.50;;;2.85;;
10529;SDS011;5313;48.834;9.228;2023-07-09T09:45:13;5.90;;;3.28;;
10529;SDS011;5313;48.834;9.228;2023-07-09T09:47:47;4.65;;;3.00;;
10529;SDS011;5313;48.834;9.228;2023-07-09T09:50:14;4.53;;;3.40;;
10529;SDS011;5313;48.834;9.228;2023-07-09T09:52:42;3.78;;;3.15;;
10529;SDS011;5313;48.834;9.228;2023-07-09T09:55:11;4.03;;;3.30;;
10529;SDS011;5313;48.834;9.228;2023-07-09T09:57:46;3.63;;;3.22;;
10529;SDS011;5313;48.834;9.228;2023-07-09T10:00:17;4.15;;;2.83;;
10529;SDS011;5313;48.834;9.228;2023-07-09T10:02:44;3.72;;;2.78;;
10529;SDS011;5313;48.834;9.228;2023-07-09T10:05:21;4.53;;;3.17;;
10529;SDS011;5313;48.834;9.228;2023-07-09T10:08:00;3.70;;;2.75;;
10529;SDS011;5313;48.834;9.228;2023-07-09T10:10:33;5.60;;;2.63;;
10529;SDS011;5313;48.834;9.228;2023-07-09T10:13:01;5.35;;;2.50;;
10529;SDS011;5313;48.834;9.228;2023-07-09T10:15:51;5.25;;;3.05;;
10529;SDS011;5313;48.834;9.228;2023-07-09T10:18:37;4.10;;;2.60;;
10529;SDS011;5313;48.834;9.228;2023-07-09T10:21:23;3.33;;;2.55;;
10529;SDS011;5313;48.834;9.228;2023-07-09T10:26:53;3.58;;;2.38;;
10529;SDS011;5313;48.834;9.228;2023-07-09T10:29:48;4.30;;;2.85;;
10529;SDS011;5313;48.834;9.228;2023-07-09T10:35:17;4.03;;;2.30;;
10529;SDS011;5313;48.834;9.228;2023-07-09T10:40:59;4.15;;;2.45;;
10529;SDS011;5313;48.834;9.228;2023-07-09T10:46:12;3.92;;;2.67;;
10529;SDS011;5313;48.834;9.228;2023-07-09T10:48:42;3.75;;;2.60;;
10529;SDS011;5313;48.834;9.228;2023-07-09T10:51:24;4.88;;;2.85;;
10529;SDS011;5313;48.834;9.228;2023-07-09T10:53:58;5.00;;;2.90;;
10529;SDS011;5313;48.834;9.228;2023-07-09T10:56:27;5.78;;;3.10;;
10529;SDS011;5313;48.834;9.228;2023-07-09T11:01:39;6.45;;;2.88;;
10529;SDS011;5313;48.834;9.228;2023-07-09T11:04:11;4.72;;;2.70;;
10529;SDS011;5313;48.834;9.228;2023-07-09T11:06:51;5.75;;;2.95;;
10529;SDS011;5313;48.834;9.228;2023-07-09T11:11:54;6.43;;;2.95;;
10529;SDS011;5313;48.834;9.228;2023-07-09T11:16:55;4.53;;;2.90;;
10529;SDS011;5313;48.834;9.228;2023-07-09T11:19:23;4.78;;;2.70;;
10529;SDS011;5313;48.834;9.228;2023-07-09T11:27:28;3.67;;;2.72;;
10529;SDS011;5313;48.834;9.228;2023-07-09T11:32:24;5.88;;;3.00;;
10529;SDS011;5313;48.834;9.228;2023-07-09T11:34:50;6.53;;;3.35;;
10529;SDS011;5313;48.834;9.228;2023-07-09T11:37:15;4.25;;;2.70;;
10529;SDS011;5313;48.834;9.228;2023-07-09T11:39:46;4.15;;;2.70;;
10529;SDS011;5313;48.834;9.228;2023-07-09T11:42:30;4.75;;;3.10;;
10529;SDS011;5313;48.834;9.228;2023-07-09T11:45:11;5.78;;;3.30;;
10529;SDS011;5313;48.834;9.228;2023-07-09T11:47:43;3.78;;;2.83;;
10529;SDS011;5313;48.834;9.228;2023-07-09T11:52:48;5.63;;;3.50;;
10529;SDS011;5313;48.834;9.228;2023-07-09T11:58:08;5.07;;;3.22;;
10529;SDS011;5313;48.834;9.228;2023-07-09T12:00:39;6.03;;;3.33;;
10529;SDS011;5313;48.834;9.228;2023-07-09T12:03:09;5.38;;;3.33;;
10529;SDS011;5313;48.834;9.228;2023-07-09T12:05:39;4.03;;;2.83;;
10529;SDS011;5313;48.834;9.228;2023-07-09T12:08:11;8.68;;;3.30;;
10529;SDS011;5313;48.834;9.228;2023-07-09T12:10:40;5.78;;;3.10;;
10529;SDS011;5313;48.834;9.228;2023-07-09T12:13:08;7.15;;;3.50;;
10529;SDS011;5313;48.834;9.228;2023-07-09T12:15:38;5.03;;;3.35;;
10529;SDS011;5313;48.834;9.228;2023-07-09T12:18:10;5.60;;;3.20;;
10529;SDS011;5313;48.834;9.228;2023-07-09T12:20:37;6.55;;;3.42;;
10529;SDS011;5313;48.834;9.228;2023-07-09T12:25:52;6.43;;;3.42;;
10529;SDS011;5313;48.834;9.228;2023-07-09T12:28:19;7.22;;;3.30;;
10529;SDS011;5313;48.834;9.228;2023-07-09T12:30:46;7.32;;;3.38;;
10529;SDS011;5313;48.834;9.228;2023-07-09T12:33:17;5.22;;;3.20;;
10529;SDS011;5313;48.834;9.228;2023-07-09T12:35:44;5.20;;;3.25;;
10529;SDS011;5313;48.834;9.228;2023-07-09T12:38:17;6.30;;;3.53;;
10529;SDS011;5313;48.834;9.228;2023-07-09T12:40:45;4.72;;;3.08;;
10529;SDS011;5313;48.834;9.228;2023-07-09T12:43:13;4.82;;;3.35;;
10529;SDS011;5313;48.834;9.228;2023-07-09T12:45:38;6.63;;;3.42;;
10529;SDS011;5313;48.834;9.228;2023-07-09T12:48:04;7.20;;;3.50;;
10529;SDS011;5313;48.834;9.228;2023-07-09T12:50:31;7.18;;;3.35;;
10529;SDS011;5313;48.834;9.228;2023-07-09T12:53:11;6.57;;;3.45;;
10529;SDS011;5313;48.834;9.228;2023-07-09T12:55:40;5.75;;;3.30;;
10529;SDS011;5313;48.834;9.228;2023-07-09T12:58:11;6.28;;;3.47;;
10529;SDS011;5313;48.834;9.228;2023-07-09T13:00:47;6.60;;;3.72;;
10529;SDS011;5313;48.834;9.228;2023-07-09T13:03:18;6.60;;;3.40;;
10529;SDS011;5313;48.834;9.228;2023-07-09T13:05:51;6.82;;;3.70;;
10529;SDS011;5313;48.834;9.228;2023-07-09T13:08:23;5.50;;;3.38;;
10529;SDS011;5313;48.834;9.228;2023-07-09T13:10:50;6.22;;;3.47;;
10529;SDS011;5313;48.834;9.228;2023-07-09T13:13:17;5.70;;;3.78;;
10529;SDS011;5313;48.834;9.228;2023-07-09T13:15:47;7.18;;;3.65;;
10529;SDS011;5313;48.834;9.228;2023-07-09T13:18:15;5.80;;;3.63;;
10529;SDS011;5313;48.834;9.228;2023-07-09T13:20:42;7.93;;;3.28;;
10529;SDS011;5313;48.834;9.228;2023-07-09T13:23:14;5.82;;;3.58;;
10529;SDS011;5313;48.834;9.228;2023-07-09T13:25:46;5.97;;;3.38;;
10529;SDS011;5313;48.834;9.228;2023-07-09T13:28:25;6.43;;;3.10;;
10529;SDS011;5313;48.834;9.228;2023-07-09T13:30:56;4.68;;;2.88;;
10529;SDS011;5313;48.834;9.228;2023-07-09T13:33:25;6.25;;;3.30;;
10529;SDS011;5313;48.834;9.228;2023-07-09T13:35:51;7.32;;;3.50;;
10529;SDS011;5313;48.834;9.228;2023-07-09T13:38:19;8.73;;;3.58;;
10529;SDS011;5313;48.834;9.228;2023-07-09T13:40:48;8.50;;;3.65;;
10529;SDS011;5313;48.834;9.228;2023-07-09T13:43:17;6.35;;;3.78;;
10529;SDS011;5313;48.834;9.228;2023-07-09T13:45:45;6.90;;;3.72;;
10529;SDS011;5313;48.834;9.228;2023-07-09T13:48:15;7.53;;;3.58;;
10529;SDS011;5313;48.834;9.228;2023-07-09T13:50:42;5.82;;;3.40;;
10529;SDS011;5313;48.834;9.228;2023-07-09T13:53:12;5.88;;;3.50;;
10529;SDS011;5313;48.834;9.228;2023-07-09T13:55:40;5.93;;;3.33;;
10529;SDS011;5313;48.834;9.228;2023-07-09T13:58:08;5.63;;;3.25;;
10529;SDS011;5313;48.834;9.228;2023-07-09T14:00:35;5.78;;;3.55;;
10529;SDS011;5313;48.834;9.228;2023-07-09T14:03:01;6.97;;;3.15;;
10529;SDS011;5313;48.834;9.228;2023-07-09T14:05:27;6.63;;;3.50;;
10529;SDS011;5313;48.834;9.228;2023-07-09T14:07:53;10.05;;;3.67;;
10529;SDS011;5313;48.834;9.228;2023-07-09T14:10:18;6.75;;;3.22;;
10529;SDS011;5313;48.834;9.228;2023-07-09T14:12:44;6.82;;;3.40;;
10529;SDS011;5313;48.834;9.228;2023-07-09T14:15:18;7.53;;;3.60;;
10529;SDS011;5313;48.834;9.228;2023-07-09T14:17:45;6.38;;;3.92;;
10529;SDS011;5313;48.834;9.228;2023-07-09T14:20:15;6.18;;;3.00;;
10529;SDS011;5313;48.834;9.228;2023-07-09T14:22:42;6.68;;;3.80;;
10529;SDS011;5313;48.834;9.228;2023-07-09T14:25:14;7.30;;;3.83;;
10529;SDS011;5313;48.834;9.228;2023-07-09T14:27:43;6.68;;;3.53;;
10529;SDS011;5313;48.834;9.228;2023-07-09T14:30:09;4.53;;;3.13;;
10529;SDS011;5313;48.834;9.228;2023-07-09T14:32:39;4.30;;;3.10;;
10529;SDS011;5313;48.834;9.228;2023-07-09T14:35:11;4.75;;;3.00;;
10529;SDS011;5313;48.834;9.228;2023-07-09T14:37:39;5.10;;;3.53;;
10529;SDS011;5313;48.834;9.228;2023-07-09T14:40:04;5.32;;;3.10;;
10529;SDS011;5313;48.834;9.228;2023-07-09T14:42:31;5.28;;;3.10;;
10529;SDS011;5313;48.834;9.228;2023-07-09T14:44:56;4.65;;;2.83;;
10529;SDS011;5313;48.834;9.228;2023-07-09T14:47:22;4.13;;;3.25;;
10529;SDS011;5313;48.834;9.228;2023-07-09T14:49:48;4.60;;;2.92;;
10529;SDS011;5313;48.834;9.228;2023-07-09T14:52:16;6.25;;;3.05;;
10529;SDS011;5313;48.834;9.228;2023-07-09T14:54:44;5.40;;;3.08;;
10529;SDS011;5313;48.834;9.228;2023-07-09T14:57:20;3.20;;;2.55;;
10529;SDS011;5313;48.834;9.228;2023-07-09T14:59:47;4.38;;;2.97;;
10529;SDS011;5313;48.834;9.228;2023-07-09T15:02:33;4.13;;;3.15;;
10529;SDS011;5313;48.834;9.228;2023-07-09T15:05:05;7.35;;;3.35;;
10529;SDS011;5313;48.834;9.228;2023-07-09T15:07:37;5.47;;;3.10;;
10529;SDS011;5313;48.834;9.228;2023-07-09T15:10:02;5.25;;;3.25;;
10529;SDS011;5313;48.834;9.228;2023-07-09T15:12:32;7.22;;;3.60;;
10529;SDS011;5313;48.834;9.228;2023-07-09T15:15:01;5.53;;;3.03;;
10529;SDS011;5313;48.834;9.228;2023-07-09T15:17:47;4.85;;;2.95;;
10529;SDS011;5313;48.834;9.228;2023-07-09T15:20:18;5.18;;;3.50;;
10529;SDS011;5313;48.834;9.228;2023-07-09T15:22:47;4.80;;;3.15;;
10529;SDS011;5313;48.834;9.228;2023-07-09T15:25:19;4.75;;;3.60;;
10529;SDS011;5313;48.834;9.228;2023-07-09T15:27:46;4.95;;;3.38;;
10529;SDS011;5313;48.834;9.228;2023-07-09T15:30:13;5.50;;;3.20;;
10529;SDS011;5313;48.834;9.228;2023-07-09T15:32:44;5.05;;;3.40;;
10529;SDS011;5313;48.834;9.228;2023-07-09T15:35:11;3.83;;;3.05;;
10529;SDS011;5313;48.834;9.228;2023-07-09T15:37:41;6.75;;;3.45;;
10529;SDS011;5313;48.834;9.228;2023-07-09T15:40:17;6.13;;;3.60;;
10529;SDS011;5313;48.834;9.228;2023-07-09T15:42:48;6.78;;;3.22;;
10529;SDS011;5313;48.834;9.228;2023-07-09T15:45:15;5.45;;;2.90;;
10529;SDS011;5313;48.834;9.228;2023-07-09T15:47:42;4.18;;;2.83;;
10529;SDS011;5313;48.834;9.228;2023-07-09T15:50:23;6.25;;;3.00;;
10529;SDS011;5313;48.834;9.228;2023-07-09T15:52:52;5.97;;;3.28;;